Details From SMJP - Paramaribo Johan A Pengel Intl
To TNCM - St Maarten - Princess Juliana Intl
Flight Number -
Tags decoded
Created
Modified
Stats Distance 916 nm / 1,697 km
Max Altitude 0 ft / 0 m
Waypoints 7
Social Downloads 4
Likes 0
Share VATSIM

Download

Looking for another format? Having issues loading an existing format? Contact us
Advertisement - Login to hide

Notes

Requested: SMJP GEKOS DAGTO IBERT KAISO AXITA ROMKI ANU ELOPO TNCM Unmatched points: DAGTO AXITA ROMKI

Route

SMJP GEKOS IBERT KAISO ANU ELOPO TNCM

ID Type Via Altitude Latitude Longitude Leg Dist Tot Dist Heading (true) Name
O SMJP APT - 0 ft / 0 m 5.45283˚ -55.18778˚ - 0 nm - Paramaribo Johan A Pengel Intl
GEKOS FIX - 0 ft / 0 m 6.93902˚ -57.00000˚ 140 nm 140 nm 310° / 309° -
IBERT FIX - 0 ft / 0 m 7.81716˚ -58.08032˚ 83 nm 223 nm 309° / 309° -
KAISO FIX - 0 ft / 0 m 8.91972˚ -58.50722˚ 70 nm 294 nm 339° / 339° -
ANU NDB - 0 ft / 0 m 17.12588˚ -61.80017˚ 529 nm 823 nm 339° / 338° V C BIRD NDB
ELOPO FIX - 0 ft / 0 m 17.65006˚ -62.55439˚ 53 nm 876 nm 306° / 306° -
O TNCM APT - 0 ft / 0 m 18.04089˚ -63.10897˚ 39 nm 916 nm 307° / 306° St Maarten - Princess Juliana Intl

Altitude Profile

Advertisement - Login to hide

Weather


0- 5 10 15 20 25 30 35+ Temperature / ° C

Clouds and Precipitation
Forecast for 2018-05-26 00:00 UTC. Updated 4 hours ago

Ground ~20,000 ft ~40,000 ft Winds

SMJP

Details ICAO SMJP (PBM)
Name Paramaribo Johan A Pengel Intl
Region Suriname
Timezone America/Paramaribo (UTC-3.0)
Stats Elevation 59 ft / 18 m (AMSL)
Location 5.452831° -55.187783°
Runways 1
Magnetic Variation 17.565° W

METAR

SMJP 260300Z 14002KT 9999 FEW015 SCT030 25/24 Q1013 NOSIG

Decode

TAF

TAF SMJP 252200Z 2600/2624 10003KT 9999 SCT012 SCT030 TX30/2618Z TN23/2610Z BECMG 2611/2613 11008KT TEMPO 2615/2622 4000 SHRA FEW015CB BKN020 PROB30 TEMPO 2618/2621 VRB12G25KT 2000 TSRA SCT015CB SCT018

Decode

Departure Runways

ID Width Length Bearing (true) Bearing (mag) Surface Threshold Offset Overrun Length
11 148 ft / 45 m 11,415 ft / 3,479 m 89.66° 107.22° Concrete 0 ft / 0 m 164 ft / 50 m
29 148 ft / 45 m 11,415 ft / 3,479 m 269.67° 287.23° Concrete 0 ft / 0 m 197 ft / 60 m

TNCM

Details ICAO TNCM (SXM)
Name St Maarten - Princess Juliana Intl
Region Caribbean Netherlands, Aruba, Curaçao, Sint Maarten
Timezone Unknown (UTC+0.0)
Stats Elevation 12 ft / 4 m (AMSL)
Location 18.040889° -63.108974°
Runways 1
Magnetic Variation 14.337° W

METAR

TNCM 260300Z 08011KT 9999 FEW018 26/22 Q1018 A3006

Decode

TAF

TNCM 252339Z 2600/2624 09010KT P6SM FEW018 FEW030 FM260600 08006KT P6SM VCSH SCT018 SCT030 FM261400 11014KT P6SM SCT022

Decode

Destination Runways

ID Width Length Bearing (true) Bearing (mag) Surface Threshold Offset Overrun Length
10 148 ft / 45 m 7,464 ft / 2,275 m 81.43° 95.77° Asphalt 0 ft / 0 m 151 ft / 46 m
28 148 ft / 45 m 7,464 ft / 2,275 m 261.44° 275.78° Asphalt 397 ft / 121 m 0 ft / 0 m

Popular Alternatives